Main page
METAR-TAF:

METAR-TAF

Airports :

Devi Ahilya Bai Holkar Airport

Indore, India

latitude: 22-43N, longitude: 075-48E, elevation: 561 m

Current weather observation

The report was made 1 hour and 35 minutes ago, at 18:00 UTC
Wind 6 kt from the North/Northeast
Temperature 26°C
Humidity 37%
Pressure 1011 hPa
Visibility: 5000 m
haze

METAR: VAID 191800Z 02006KT 5000 HZ NSC 26/10 Q1011 NOSIG

Time: 01:05 (19:35 UTC)

Forecast

The report was made 2 hours and 35 minutes ago, at 17:00 UTC
Forecast valid from 19 at 18 UTC to 20 at 03 UTC
Wind 5 kt from the South/Southeast
Visibility: 4000 m
haze
Becoming
from 20 at 00 UTC to 20 at 03 UTC
Wind 3 kt from the North/Northeast
Visibility: 3000 m
haze

TAF: VAID 191700Z 1918/2003 16005KT 4000 HZ NSC BECMG 2000/2003 02003KT 3000 HZ

Weather observations and forecasts of more than 4000 airports (METAR and TAF reports).

The available stations are represented by yellow and red dots on the map.

Hover mouse over dot to see the name of the station.

Then click to see weather observations and forecasts.

To change the map : click on the green buttons with a black cross to zoom in, on the green button with a dash to zoom out, or on the green arrows for adjacent maps.


METAR-TAF: